createdAt,value
2023-02-22T00:01:35.439Z,12.70
2023-02-22T00:03:56.827Z,12.10
2023-02-22T00:06:18.810Z,13.87
2023-02-22T00:08:41.124Z,14.83
2023-02-22T00:11:03.805Z,15.50
2023-02-22T00:13:25.229Z,13.27
2023-02-22T00:15:46.258Z,15.47
2023-02-22T00:18:07.465Z,12.50
2023-02-22T00:20:31.641Z,12.33
2023-02-22T00:22:53.346Z,19.27
2023-02-22T00:25:17.261Z,16.40
2023-02-22T00:27:38.273Z,14.10
2023-02-22T00:29:59.908Z,13.67
2023-02-22T00:32:21.218Z,14.20
2023-02-22T00:34:43.609Z,13.93
2023-02-22T00:37:04.653Z,13.50
2023-02-22T00:39:25.856Z,14.07
2023-02-22T00:41:49.733Z,12.20
2023-02-22T00:44:11.716Z,15.37
2023-02-22T00:46:33.051Z,13.70
2023-02-22T00:48:54.830Z,15.77
2023-02-22T00:51:15.904Z,13.67
2023-02-22T00:53:37.521Z,14.03
2023-02-22T00:55:58.697Z,16.10
2023-02-22T00:58:21.606Z,15.80
2023-02-22T01:00:44.021Z,18.30
2023-02-22T01:03:05.874Z,13.50
2023-02-22T01:05:27.703Z,12.20
2023-02-22T01:07:50.117Z,13.13
2023-02-22T01:10:12.673Z,14.60
2023-02-22T01:12:33.509Z,14.23
2023-02-22T01:14:56.941Z,13.83
2023-02-22T01:17:18.300Z,15.20
2023-02-22T01:19:42.441Z,15.07
2023-02-22T01:22:05.473Z,14.50
2023-02-22T01:24:26.627Z,13.40
2023-02-22T01:26:50.969Z,14.10
2023-02-22T01:29:15.180Z,13.97
2023-02-22T01:31:37.854Z,14.23
2023-02-22T01:33:59.223Z,17.30
2023-02-22T01:36:20.588Z,15.67
2023-02-22T01:38:42.030Z,15.40
2023-02-22T01:41:03.612Z,14.80
2023-02-22T01:43:26.029Z,15.23
2023-02-22T01:45:58.286Z,15.40
2023-02-22T01:48:22.058Z,16.57
2023-02-22T01:50:45.172Z,16.13
2023-02-22T01:53:06.694Z,15.57
2023-02-22T01:55:28.358Z,13.07
2023-02-22T01:57:50.223Z,12.93
2023-02-22T02:00:12.793Z,13.53
2023-02-22T02:02:34.012Z,12.97
2023-02-22T02:04:57.445Z,13.47
2023-02-22T02:07:21.108Z,13.80
2023-02-22T02:09:45.802Z,12.60
2023-02-22T02:12:09.436Z,14.67
2023-02-22T02:14:31.925Z,14.47
2023-02-22T02:16:54.383Z,14.80
2023-02-22T02:19:20.238Z,16.27
2023-02-22T02:21:50.483Z,13.50
2023-02-22T02:24:21.118Z,13.67
2023-02-22T02:26:56.726Z,13.33
2023-02-22T02:29:31.468Z,18.83
2023-02-22T02:32:10.754Z,11.83
2023-02-22T02:34:36.635Z,13.07
2023-02-22T02:37:01.261Z,13.33
2023-02-22T02:39:28.459Z,14.47
2023-02-22T02:41:51.640Z,12.80
2023-02-22T02:44:15.749Z,13.33
2023-02-22T02:46:39.437Z,15.80
2023-02-22T02:49:01.829Z,14.77
2023-02-22T02:51:25.682Z,13.03
2023-02-22T02:53:48.134Z,14.10
2023-02-22T02:56:09.135Z,13.57
2023-02-22T02:58:30.302Z,13.90
2023-02-22T03:00:53.384Z,13.57
2023-02-22T03:03:33.438Z,16.30
2023-02-22T03:06:12.334Z,13.47
2023-02-22T03:08:39.723Z,13.37
2023-02-22T03:11:03.754Z,13.10
2023-02-22T03:13:31.099Z,14.53
2023-02-22T03:15:54.294Z,14.23
2023-02-22T03:18:22.805Z,12.47
2023-02-22T03:20:46.367Z,11.70
2023-02-22T03:23:10.000Z,13.70
2023-02-22T03:25:35.002Z,12.53
2023-02-22T03:28:02.350Z,13.90
2023-02-22T03:30:26.438Z,14.10
2023-02-22T03:32:49.241Z,12.73
2023-02-22T03:35:11.202Z,13.63
2023-02-22T03:37:34.048Z,14.63
2023-02-22T03:39:56.208Z,14.23
2023-02-22T03:42:20.218Z,13.80
2023-02-22T03:44:42.406Z,15.00
2023-02-22T03:47:06.786Z,13.50
2023-02-22T03:49:33.141Z,12.83
2023-02-22T03:51:54.272Z,12.80
2023-02-22T03:54:16.533Z,12.00
2023-02-22T03:56:41.364Z,13.73
2023-02-22T03:59:04.852Z,13.67
2023-02-22T04:01:25.785Z,15.03
2023-02-22T04:03:47.135Z,15.33
2023-02-22T04:06:08.632Z,13.07
2023-02-22T04:08:30.269Z,13.77
2023-02-22T04:10:52.451Z,14.00
2023-02-22T04:13:14.579Z,16.90
2023-02-22T04:15:37.299Z,12.63
2023-02-22T04:17:58.269Z,17.73
2023-02-22T04:20:20.188Z,14.07
2023-02-22T04:22:41.362Z,13.33
2023-02-22T04:25:02.799Z,13.50
2023-02-22T04:27:24.217Z,12.97
2023-02-22T04:29:45.522Z,14.60
2023-02-22T04:32:08.178Z,14.97
2023-02-22T04:34:29.423Z,12.77
2023-02-22T04:36:50.632Z,15.47
2023-02-22T04:39:12.006Z,13.80
2023-02-22T04:41:34.476Z,13.93
2023-02-22T04:43:55.423Z,12.67
2023-02-22T04:46:16.817Z,13.43
2023-02-22T04:48:39.260Z,11.97
2023-02-22T04:51:00.502Z,13.00
2023-02-22T04:53:21.561Z,13.07
2023-02-22T04:55:42.764Z,12.50
2023-02-22T04:58:04.490Z,13.03
2023-02-22T05:00:26.092Z,12.00
2023-02-22T05:02:47.549Z,14.10
2023-02-22T05:05:10.048Z,12.77
2023-02-22T05:07:31.268Z,13.40
2023-02-22T05:09:52.636Z,12.73
2023-02-22T05:12:14.071Z,13.43
2023-02-22T05:14:35.540Z,14.60
2023-02-22T05:16:56.750Z,15.77
2023-02-22T05:19:18.043Z,13.20
2023-02-22T05:21:41.261Z,13.20
2023-02-22T05:24:02.717Z,14.27
2023-02-22T05:26:23.969Z,13.07
2023-02-22T05:28:45.269Z,13.83
2023-02-22T05:31:07.334Z,13.47
2023-02-22T05:33:28.359Z,13.07
2023-02-22T05:35:50.183Z,13.00
2023-02-22T05:38:15.035Z,14.23
2023-02-22T05:40:36.325Z,15.00
2023-02-22T05:42:57.749Z,13.47
2023-02-22T05:45:20.040Z,17.50
2023-02-22T05:47:41.621Z,13.07
2023-02-22T05:50:02.800Z,13.43
2023-02-22T05:52:24.174Z,15.23
2023-02-22T05:54:46.805Z,14.60
2023-02-22T05:57:07.789Z,13.03
2023-02-22T05:59:29.386Z,12.90
2023-02-22T06:01:50.566Z,15.43
2023-02-22T06:04:11.566Z,20.87
2023-02-22T06:06:32.809Z,18.00
2023-02-22T06:08:53.950Z,21.93
2023-02-22T06:11:16.874Z,19.13
2023-02-22T06:13:38.617Z,20.53
2023-02-22T06:15:59.885Z,20.17
2023-02-22T06:18:21.072Z,19.80
2023-02-22T06:20:42.455Z,15.90
2023-02-22T06:23:03.708Z,16.57
2023-02-22T06:25:26.114Z,16.10
2023-02-22T06:27:48.999Z,14.37
2023-02-22T06:30:12.286Z,15.80
2023-02-22T06:32:34.481Z,13.10
2023-02-22T06:34:55.665Z,13.23
2023-02-22T06:37:16.882Z,15.23
2023-02-22T06:39:38.115Z,13.93
2023-02-22T06:42:00.711Z,13.30
2023-02-22T06:44:23.090Z,12.17
2023-02-22T06:46:47.950Z,16.13
2023-02-22T06:49:09.057Z,12.03
2023-02-22T06:51:30.836Z,14.37
2023-02-22T06:53:51.932Z,14.10
2023-02-22T06:56:13.084Z,12.10
2023-02-22T06:58:34.374Z,15.20
2023-02-22T07:00:56.970Z,15.03
2023-02-22T07:03:18.127Z,11.80
2023-02-22T07:05:39.927Z,12.57
2023-02-22T07:08:05.306Z,12.80
2023-02-22T07:10:28.941Z,13.30
2023-02-22T07:12:52.406Z,11.33
2023-02-22T07:15:13.688Z,12.47
2023-02-22T07:17:36.393Z,16.40
2023-02-22T07:19:57.381Z,11.33
2023-02-22T07:22:18.570Z,12.77
2023-02-22T07:24:41.160Z,12.67
2023-02-22T07:27:02.399Z,13.90
2023-02-22T07:29:23.813Z,16.77
2023-02-22T07:31:45.307Z,18.97
2023-02-22T07:34:08.126Z,16.67
2023-02-22T07:36:28.975Z,19.67
2023-02-22T07:38:50.324Z,18.50
2023-02-22T07:41:11.681Z,17.83
2023-02-22T07:43:33.103Z,16.97
2023-02-22T07:45:55.068Z,15.97
2023-02-22T07:48:17.690Z,18.30
2023-02-22T07:50:40.721Z,15.00
2023-02-22T07:53:02.960Z,14.80
2023-02-22T07:55:25.003Z,17.83
2023-02-22T07:57:46.454Z,14.60
2023-02-22T08:00:08.245Z,13.67
2023-02-22T08:02:29.992Z,14.57
2023-02-22T08:04:51.285Z,14.63
2023-02-22T08:07:13.796Z,15.20
2023-02-22T08:09:35.112Z,13.30
2023-02-22T08:11:56.425Z,13.00
2023-02-22T08:14:17.885Z,13.63
2023-02-22T08:16:39.224Z,21.67
2023-02-22T08:19:00.494Z,16.80
2023-02-22T08:21:21.751Z,15.60
2023-02-22T08:23:44.326Z,13.87
2023-02-22T08:26:07.394Z,11.50
2023-02-22T08:28:28.741Z,16.33
2023-02-22T08:30:50.609Z,11.80
2023-02-22T08:33:14.350Z,13.10
2023-02-22T08:35:35.764Z,13.83
2023-02-22T08:37:58.752Z,15.63
2023-02-22T08:40:22.327Z,12.80
2023-02-22T08:42:43.345Z,14.23
2023-02-22T08:45:04.982Z,13.30
2023-02-22T08:47:26.542Z,12.90
2023-02-22T08:49:47.600Z,15.97
2023-02-22T08:52:09.051Z,13.60
2023-02-22T08:54:30.199Z,13.53
2023-02-22T08:56:52.907Z,16.40
2023-02-22T08:59:14.744Z,12.10
2023-02-22T09:01:36.463Z,12.37
2023-02-22T09:03:58.035Z,13.07
2023-02-22T09:06:20.441Z,12.10
2023-02-22T09:08:41.542Z,11.13
2023-02-22T09:11:02.943Z,12.80
2023-02-22T09:13:25.638Z,13.83
2023-02-22T09:15:47.088Z,10.00
2023-02-22T09:18:09.541Z,10.50
2023-02-22T09:20:30.931Z,10.47
2023-02-22T09:22:51.889Z,9.03
2023-02-22T09:25:16.937Z,14.03
2023-02-22T09:27:40.260Z,9.67
2023-02-22T09:30:03.293Z,10.73
2023-02-22T09:32:24.945Z,11.27
2023-02-22T09:34:48.725Z,10.00
2023-02-22T09:37:09.870Z,10.23
2023-02-22T09:39:31.171Z,13.77
2023-02-22T09:41:56.190Z,10.57
2023-02-22T09:44:20.982Z,10.07
2023-02-22T09:46:45.785Z,16.20
2023-02-22T09:49:08.815Z,12.13
2023-02-22T09:51:32.091Z,10.87
2023-02-22T09:53:56.694Z,11.73
2023-02-22T09:56:19.372Z,10.60
2023-02-22T09:58:43.087Z,11.27
2023-02-22T10:01:14.410Z,10.47
2023-02-22T10:03:39.983Z,11.23
2023-02-22T10:06:03.782Z,9.87
2023-02-22T10:08:31.154Z,11.90
2023-02-22T10:10:57.154Z,10.33
2023-02-22T10:13:23.122Z,12.67
2023-02-22T10:15:47.556Z,12.50
2023-02-22T10:18:36.699Z,10.87
2023-02-22T10:21:03.878Z,9.50
2023-02-22T10:23:30.862Z,15.50
2023-02-22T10:25:54.354Z,11.90
2023-02-22T10:28:19.579Z,12.23
2023-02-22T10:30:42.840Z,10.67
2023-02-22T10:33:06.435Z,10.47
2023-02-22T10:35:29.009Z,12.87
2023-02-22T10:37:53.943Z,13.70
2023-02-22T10:40:17.777Z,13.27
2023-02-22T10:42:39.320Z,12.07
2023-02-22T10:45:00.437Z,11.50
2023-02-22T10:47:22.123Z,12.50
2023-02-22T10:49:44.747Z,11.27
2023-02-22T10:52:12.093Z,11.80
2023-02-22T10:54:35.593Z,12.93
2023-02-22T10:56:57.482Z,13.83
2023-02-22T10:59:29.748Z,13.57
2023-02-22T11:01:51.064Z,13.17
2023-02-22T11:04:13.421Z,12.07
2023-02-22T11:06:35.298Z,14.73
2023-02-22T11:09:05.534Z,11.40
2023-02-22T11:11:29.306Z,14.07
2023-02-22T11:13:55.394Z,16.47
2023-02-22T11:16:21.273Z,13.47
2023-02-22T11:18:42.454Z,10.33
2023-02-22T11:21:05.637Z,12.47
2023-02-22T11:23:26.905Z,13.53
2023-02-22T11:25:49.133Z,10.37
2023-02-22T11:28:15.872Z,11.60
2023-02-22T11:30:38.386Z,12.40
2023-02-22T11:33:00.450Z,10.43
2023-02-22T11:35:31.712Z,13.93
2023-02-22T11:37:53.070Z,11.47
2023-02-22T11:40:18.285Z,12.67
2023-02-22T11:42:39.430Z,11.23
2023-02-22T11:45:12.459Z,10.37
2023-02-22T11:47:33.844Z,11.73
2023-02-22T11:49:56.114Z,9.80
2023-02-22T11:52:26.121Z,11.20
2023-02-22T11:54:53.729Z,8.50
2023-02-22T11:57:22.162Z,9.53
2023-02-22T11:59:50.544Z,9.60
2023-02-22T12:02:26.338Z,10.87
2023-02-22T12:04:56.599Z,10.10
2023-02-22T12:07:30.127Z,11.80
2023-02-22T12:09:55.919Z,11.67
2023-02-22T12:12:22.193Z,10.63
2023-02-22T12:14:49.070Z,9.47
2023-02-22T12:17:20.505Z,12.97
2023-02-22T12:19:45.308Z,8.60
2023-02-22T12:22:09.306Z,7.87
2023-02-22T12:24:33.420Z,9.37
2023-02-22T12:26:56.444Z,9.53
2023-02-22T12:29:25.085Z,9.60
2023-02-22T12:31:48.189Z,8.03
2023-02-22T12:34:13.554Z,7.67
2023-02-22T12:36:40.202Z,7.37
2023-02-22T12:39:07.385Z,9.40
2023-02-22T12:41:32.858Z,7.17
2023-02-22T12:43:55.302Z,10.80
2023-02-22T12:46:19.122Z,10.63
2023-02-22T12:48:44.554Z,8.30
2023-02-22T12:51:10.677Z,12.70
2023-02-22T12:53:36.993Z,8.00
2023-02-22T12:56:00.170Z,9.50
2023-02-22T12:58:25.838Z,8.87
2023-02-22T13:00:50.154Z,9.23
2023-02-22T13:03:22.101Z,11.87
2023-02-22T13:05:43.702Z,12.20
2023-02-22T13:08:21.925Z,8.47
2023-02-22T13:10:51.437Z,9.07
2023-02-22T13:13:17.170Z,11.93
2023-02-22T13:15:41.833Z,9.30
2023-02-22T13:18:07.461Z,8.17
2023-02-22T13:20:31.252Z,12.27
2023-02-22T13:22:56.425Z,9.53
2023-02-22T13:25:21.514Z,8.63
2023-02-22T13:27:45.810Z,8.60
2023-02-22T13:30:15.199Z,9.97
2023-02-22T13:32:42.630Z,10.30
2023-02-22T13:35:12.625Z,13.60
2023-02-22T13:37:58.029Z,10.83
2023-02-22T13:40:27.312Z,10.33
2023-02-22T13:42:59.443Z,11.73
2023-02-22T13:45:40.825Z,11.77
2023-02-22T13:48:07.951Z,9.90
2023-02-22T13:50:36.387Z,11.67
2023-02-22T13:52:59.081Z,10.50
2023-02-22T13:55:21.423Z,11.97
2023-02-22T13:57:48.209Z,11.13
2023-02-22T14:00:22.960Z,10.60
2023-02-22T14:03:02.303Z,12.47
2023-02-22T14:05:42.405Z,10.17
2023-02-22T14:08:05.504Z,11.53
2023-02-22T14:10:47.608Z,11.23
2023-02-22T14:13:08.934Z,12.97
2023-02-22T14:15:31.457Z,11.80
2023-02-22T14:17:58.894Z,10.33
2023-02-22T14:20:32.066Z,11.20
2023-02-22T14:22:53.506Z,11.03
2023-02-22T14:25:34.513Z,9.60
2023-02-22T14:27:55.924Z,10.90
2023-02-22T14:30:25.974Z,8.77
2023-02-22T14:32:49.207Z,9.73
2023-02-22T14:35:26.505Z,10.03
2023-02-22T14:37:54.529Z,10.70
2023-02-22T14:40:19.012Z,12.43
2023-02-22T14:42:44.041Z,11.17
2023-02-22T14:45:12.129Z,12.10
2023-02-22T14:47:40.284Z,9.93
2023-02-22T14:50:06.329Z,7.27
2023-02-22T14:52:28.864Z,9.50
2023-02-22T14:54:59.710Z,8.57
2023-02-22T14:57:24.377Z,9.20
2023-02-22T15:00:02.224Z,10.97
2023-02-22T15:02:25.983Z,9.53
2023-02-22T15:04:51.814Z,8.23
2023-02-22T15:07:22.478Z,9.90
2023-02-22T15:09:46.591Z,10.70
2023-02-22T15:12:18.194Z,11.00
2023-02-22T15:14:40.594Z,8.63
2023-02-22T15:17:03.880Z,8.77
2023-02-22T15:19:26.661Z,9.00
2023-02-22T15:21:50.008Z,9.87
2023-02-22T15:24:21.245Z,9.90
2023-02-22T15:26:59.245Z,9.20
2023-02-22T15:29:24.684Z,9.50
2023-02-22T15:31:48.260Z,15.43
2023-02-22T15:34:22.034Z,23.97
2023-02-22T15:36:43.623Z,45.30
2023-02-22T15:39:08.494Z,23.70
2023-02-22T15:41:32.371Z,23.07
2023-02-22T15:44:14.143Z,15.37
2023-02-22T15:46:42.720Z,15.57
2023-02-22T15:49:08.357Z,14.20
2023-02-22T15:51:30.223Z,16.97
2023-02-22T15:53:52.181Z,14.30
2023-02-22T15:56:15.415Z,17.93
2023-02-22T15:58:39.071Z,13.30
2023-02-22T16:01:01.826Z,13.93
2023-02-22T16:03:27.216Z,15.03
2023-02-22T16:05:50.502Z,20.50
2023-02-22T16:08:15.646Z,19.37
2023-02-22T16:10:37.042Z,16.93
2023-02-22T16:13:31.140Z,14.17
2023-02-22T16:16:00.352Z,15.97
2023-02-22T16:18:26.165Z,16.17
2023-02-22T16:20:47.339Z,12.93
2023-02-22T16:23:24.834Z,13.73
2023-02-22T16:25:45.807Z,12.47
2023-02-22T16:28:21.874Z,16.07
2023-02-22T16:30:43.196Z,14.37
2023-02-22T16:33:06.832Z,15.67
2023-02-22T16:35:29.710Z,12.00
2023-02-22T16:37:52.111Z,11.83
2023-02-22T16:40:14.331Z,12.17
2023-02-22T16:42:35.453Z,12.03
2023-02-22T16:44:57.491Z,14.90
2023-02-22T16:47:19.520Z,13.67
2023-02-22T16:49:42.253Z,11.70
2023-02-22T16:52:06.764Z,15.17
2023-02-22T16:54:29.663Z,12.50
2023-02-22T16:56:51.120Z,13.97
2023-02-22T16:59:14.007Z,14.27
2023-02-22T17:01:35.471Z,12.60
2023-02-22T17:03:57.689Z,14.57
2023-02-22T17:06:19.957Z,13.73
2023-02-22T17:08:42.106Z,18.97
2023-02-22T17:11:04.145Z,15.23
2023-02-22T17:13:27.322Z,17.00
2023-02-22T17:15:48.837Z,12.40
2023-02-22T17:18:13.945Z,13.10
2023-02-22T17:20:35.824Z,16.20
2023-02-22T17:22:59.936Z,13.93
2023-02-22T17:25:22.436Z,15.33
2023-02-22T17:27:43.847Z,12.70
2023-02-22T17:30:05.173Z,16.17
2023-02-22T17:32:26.163Z,19.00
2023-02-22T17:34:47.337Z,17.57
2023-02-22T17:37:08.536Z,15.53
2023-02-22T17:39:31.277Z,16.77
2023-02-22T17:41:57.502Z,13.30
2023-02-22T17:44:18.560Z,14.87
2023-02-22T17:46:41.168Z,13.80
2023-02-22T17:49:03.414Z,15.00
2023-02-22T17:51:26.162Z,15.73
2023-02-22T17:53:47.828Z,15.03
2023-02-22T17:56:13.226Z,16.77
2023-02-22T17:58:34.346Z,15.37
2023-02-22T18:00:59.229Z,21.33
2023-02-22T18:03:26.196Z,14.00
2023-02-22T18:05:48.481Z,16.57
2023-02-22T18:08:10.702Z,23.23
2023-02-22T18:10:32.523Z,18.00
2023-02-22T18:12:56.760Z,18.73
2023-02-22T18:15:18.327Z,24.33
2023-02-22T18:17:39.352Z,19.27
2023-02-22T18:20:00.568Z,18.30
2023-02-22T18:22:21.830Z,22.67
2023-02-22T18:24:43.065Z,23.83
2023-02-22T18:27:06.582Z,22.27
2023-02-22T18:29:29.225Z,22.93
2023-02-22T18:31:53.070Z,30.27
2023-02-22T18:34:15.817Z,23.03
2023-02-22T18:36:36.865Z,26.97
2023-02-22T18:38:58.941Z,22.53
2023-02-22T18:41:20.903Z,19.97
2023-02-22T18:43:42.267Z,21.40
2023-02-22T18:46:08.877Z,21.70
2023-02-22T18:48:30.452Z,23.67
2023-02-22T18:50:51.830Z,21.40
2023-02-22T18:53:13.031Z,24.50
2023-02-22T18:55:37.530Z,21.80
2023-02-22T18:57:58.685Z,20.77
2023-02-22T19:00:24.121Z,23.80
2023-02-22T19:02:46.513Z,23.17
2023-02-22T19:05:09.994Z,20.83
2023-02-22T19:07:32.762Z,21.63
2023-02-22T19:09:53.827Z,23.77
2023-02-22T19:12:16.970Z,22.03
2023-02-22T19:14:38.443Z,23.40
2023-02-22T19:17:01.503Z,18.97
2023-02-22T19:19:26.484Z,22.43
2023-02-22T19:21:48.215Z,26.50
2023-02-22T19:24:09.106Z,21.03
2023-02-22T19:26:30.805Z,23.93
2023-02-22T19:28:52.888Z,22.77
2023-02-22T19:31:14.604Z,21.30
2023-02-22T19:33:36.242Z,26.40
2023-02-22T19:36:01.957Z,22.67
2023-02-22T19:38:22.970Z,19.57
2023-02-22T19:40:44.342Z,21.73
2023-02-22T19:43:05.686Z,22.60
2023-02-22T19:45:26.965Z,23.97
2023-02-22T19:47:48.679Z,22.07
2023-02-22T19:50:09.842Z,23.47
2023-02-22T19:52:32.346Z,20.93
2023-02-22T19:54:54.183Z,21.67
2023-02-22T19:57:15.479Z,27.43
2023-02-22T19:59:36.751Z,25.80
2023-02-22T20:01:58.429Z,22.60
2023-02-22T20:04:21.266Z,23.07
2023-02-22T20:06:43.961Z,20.33
2023-02-22T20:09:07.875Z,33.30
2023-02-22T20:11:29.286Z,31.67
2023-02-22T20:13:50.484Z,23.77
2023-02-22T20:16:15.479Z,27.23
2023-02-22T20:18:37.243Z,27.63
2023-02-22T20:20:58.385Z,22.23
2023-02-22T20:23:19.694Z,23.97
2023-02-22T20:25:42.462Z,20.60
2023-02-22T20:28:03.725Z,21.63
2023-02-22T20:30:25.235Z,21.63
2023-02-22T20:32:46.705Z,23.73
2023-02-22T20:35:08.834Z,24.57
2023-02-22T20:37:31.163Z,22.90
2023-02-22T20:39:52.337Z,26.77
2023-02-22T20:42:15.513Z,23.00
2023-02-22T20:44:36.710Z,23.47
2023-02-22T20:46:57.924Z,24.20
2023-02-22T20:49:20.358Z,21.60
2023-02-22T20:51:41.947Z,22.70
2023-02-22T20:54:03.110Z,23.13
2023-02-22T20:56:25.245Z,25.73
2023-02-22T20:58:47.808Z,21.67
2023-02-22T21:01:11.914Z,25.03
2023-02-22T21:03:34.381Z,23.17
2023-02-22T21:05:55.592Z,20.67
2023-02-22T21:08:16.840Z,22.23
2023-02-22T21:10:41.395Z,20.17
2023-02-22T21:13:05.535Z,19.60
2023-02-22T21:15:28.432Z,26.47
2023-02-22T21:17:50.361Z,24.00
2023-02-22T21:20:12.305Z,22.67
2023-02-22T21:22:33.637Z,20.20
2023-02-22T21:24:54.799Z,20.40
2023-02-22T21:27:16.151Z,22.23
2023-02-22T21:29:37.692Z,22.00
2023-02-22T21:32:00.675Z,23.87
2023-02-22T21:34:22.402Z,24.43
2023-02-22T21:36:43.442Z,22.47
2023-02-22T21:39:08.950Z,24.33
2023-02-22T21:41:31.244Z,20.87
2023-02-22T21:43:52.860Z,23.13
2023-02-22T21:46:14.031Z,23.53
2023-02-22T21:48:38.366Z,21.43
2023-02-22T21:50:59.762Z,22.43
2023-02-22T21:53:22.652Z,24.33
2023-02-22T21:55:44.204Z,24.77
2023-02-22T21:58:05.938Z,21.97
2023-02-22T22:00:31.043Z,23.10
2023-02-22T22:02:52.210Z,24.17
2023-02-22T22:05:17.262Z,24.53
2023-02-22T22:07:38.579Z,22.90
2023-02-22T22:09:59.844Z,24.23
2023-02-22T22:12:26.029Z,26.07
2023-02-22T22:14:50.320Z,25.30
2023-02-22T22:17:12.112Z,23.57
2023-02-22T22:19:38.445Z,25.10
2023-02-22T22:22:00.987Z,26.27
2023-02-22T22:24:22.781Z,23.47
2023-02-22T22:26:44.378Z,27.53
2023-02-22T22:29:09.500Z,25.73
2023-02-22T22:31:31.560Z,25.67
2023-02-22T22:33:53.208Z,24.10
2023-02-22T22:36:15.837Z,25.87
2023-02-22T22:38:39.668Z,27.73
2023-02-22T22:41:01.184Z,28.97
2023-02-22T22:43:22.210Z,28.50
2023-02-22T22:45:43.610Z,25.63
2023-02-22T22:48:04.779Z,23.40
2023-02-22T22:50:26.470Z,22.40
2023-02-22T22:52:48.996Z,23.47
2023-02-22T22:55:12.014Z,23.23
2023-02-22T22:57:33.852Z,24.30
2023-02-22T22:59:55.242Z,23.73
2023-02-22T23:02:20.354Z,23.53
2023-02-22T23:04:41.333Z,22.83
2023-02-22T23:07:02.614Z,23.93
2023-02-22T23:09:24.981Z,24.90
2023-02-22T23:11:50.494Z,21.33
2023-02-22T23:14:12.300Z,24.73
2023-02-22T23:16:33.308Z,24.13
2023-02-22T23:18:54.385Z,20.03
2023-02-22T23:21:17.843Z,23.53
2023-02-22T23:23:39.492Z,22.03
2023-02-22T23:26:11.363Z,23.27
2023-02-22T23:28:34.080Z,22.73
2023-02-22T23:30:56.954Z,23.87
2023-02-22T23:33:18.242Z,24.50
2023-02-22T23:35:39.306Z,22.23
2023-02-22T23:38:00.731Z,21.47
2023-02-22T23:40:21.954Z,23.77
2023-02-22T23:42:43.632Z,24.00
2023-02-22T23:45:06.937Z,24.67
2023-02-22T23:47:31.702Z,23.83
2023-02-22T23:49:54.528Z,23.90
2023-02-22T23:52:23.739Z,21.67
2023-02-22T23:54:46.837Z,22.87
2023-02-22T23:57:08.847Z,23.17
2023-02-22T23:59:30.949Z,24.77
